Time;durP1;ratioP1;P1;durP2;ratioP2;P2;SDS_P1;SDS_P2;PMS_P1;PMS_P2;Temp;Humidity;BMP_temperature;BMP_pressure;BME280_temperature;BME280_humidity;BME280_pressure;Samples;Min_cycle;Max_cycle;Signal;HPM_P1;HPM_P2
2023/10/23 00:00:32;;;;;;;8.73;4.45;;;9.90;99.90;;;;;;5105502;28;20514;-87
2023/10/23 00:02:57;;;;;;;11.32;4.35;;;9.90;99.90;;;;;;5087730;27;20039;-87
2023/10/23 00:05:23;;;;;;;9.75;4.07;;;9.90;99.90;;;;;;5089605;27;20035;-87
2023/10/23 00:07:49;;;;;;;7.95;3.53;;;9.90;99.90;;;;;;5105473;27;20035;-87
2023/10/23 00:10:15;;;;;;;12.82;9.77;;;9.90;99.90;;;;;;5097935;28;20106;-86
2023/10/23 00:12:40;;;;;;;11.18;3.95;;;9.90;99.90;;;;;;5094248;28;20398;-86
2023/10/23 00:15:07;;;;;;;10.32;3.58;;;9.90;99.90;;;;;;5077515;28;20122;-86
2023/10/23 00:17:32;;;;;;;8.45;3.97;;;9.80;99.90;;;;;;5093672;28;20035;-87
2023/10/23 00:19:59;;;;;;;11.88;4.35;;;9.70;99.90;;;;;;5093987;28;20046;-86
2023/10/23 00:22:25;;;;;;;10.93;3.85;;;9.70;99.90;;;;;;5094336;28;20074;-86
2023/10/23 00:24:50;;;;;;;7.38;3.83;;;9.70;99.90;;;;;;5093372;28;20528;-86
2023/10/23 00:27:16;;;;;;;7.50;3.42;;;9.60;99.90;;;;;;5076373;28;20035;-86
2023/10/23 00:29:41;;;;;;;7.65;3.47;;;9.60;99.90;;;;;;5075964;28;20062;-87
2023/10/23 00:32:07;;;;;;;7.05;3.33;;;9.50;99.90;;;;;;5093348;28;20402;-86
2023/10/23 00:34:33;;;;;;;7.53;3.35;;;9.50;99.90;;;;;;5076417;28;20495;-86
2023/10/23 00:36:58;;;;;;;12.05;10.00;;;9.50;99.90;;;;;;5075912;28;20040;-86
2023/10/23 00:39:24;;;;;;;9.05;4.55;;;9.60;99.90;;;;;;5075889;28;20039;-87
2023/10/23 00:41:49;;;;;;;8.50;4.10;;;9.50;99.90;;;;;;5076033;28;20039;-86
2023/10/23 00:44:15;;;;;;;14.38;5.00;;;9.50;99.90;;;;;;5092748;28;20050;-87
2023/10/23 00:46:42;;;;;;;10.23;4.07;;;9.40;99.90;;;;;;5076024;28;20077;-86
2023/10/23 00:49:09;;;;;;;8.98;3.97;;;9.40;99.90;;;;;;5075877;28;20051;-86
2023/10/23 00:51:35;;;;;;;8.73;4.20;;;9.40;99.90;;;;;;5092908;28;20114;-86
2023/10/23 00:54:02;;;;;;;9.65;4.10;;;9.40;99.90;;;;;;5076516;28;20039;-86
2023/10/23 00:56:28;;;;;;;10.63;4.18;;;9.40;99.90;;;;;;5092867;28;20050;-86
2023/10/23 00:58:54;;;;;;;10.23;4.10;;;9.40;99.90;;;;;;5092395;28;20043;-86
2023/10/23 01:01:20;;;;;;;9.05;3.72;;;9.30;99.90;;;;;;5092855;28;20126;-86
2023/10/23 01:03:46;;;;;;;7.65;3.72;;;9.40;99.90;;;;;;5092675;28;20089;-86
2023/10/23 01:06:14;;;;;;;9.40;4.22;;;9.30;99.90;;;;;;5075986;28;20069;-86
2023/10/23 01:08:42;;;;;;;7.72;4.10;;;9.30;99.90;;;;;;5075273;28;20036;-86
2023/10/23 01:11:07;;;;;;;10.80;4.20;;;9.30;99.90;;;;;;5075920;28;20038;-87
2023/10/23 01:13:33;;;;;;;9.15;4.57;;;9.30;99.90;;;;;;5074618;28;20051;-86
2023/10/23 01:15:58;;;;;;;11.30;5.38;;;9.30;99.90;;;;;;5092523;28;20036;-86
2023/10/23 01:18:24;;;;;;;8.05;3.60;;;9.30;99.90;;;;;;5091969;28;20414;-88
2023/10/23 01:20:50;;;;;;;10.55;4.57;;;9.20;99.90;;;;;;5092244;28;20043;-86
2023/10/23 01:23:15;;;;;;;10.65;4.63;;;9.20;99.90;;;;;;5091799;28;20039;-85
2023/10/23 01:25:41;;;;;;;8.73;4.45;;;9.20;99.90;;;;;;5057088;28;1058991;-86
2023/10/23 01:28:07;;;;;;;7.72;3.42;;;9.10;99.90;;;;;;5094045;28;20036;-86
2023/10/23 01:30:33;;;;;;;7.65;3.25;;;9.10;99.90;;;;;;5093411;28;20089;-87
2023/10/23 01:32:58;;;;;;;8.10;3.60;;;9.10;99.90;;;;;;5095733;28;20031;-86
2023/10/23 01:35:24;;;;;;;7.35;3.90;;;9.00;99.90;;;;;;5093536;28;20036;-86
2023/10/23 01:37:51;;;;;;;8.23;4.07;;;9.00;99.90;;;;;;5093179;28;20028;-85
2023/10/23 01:40:17;;;;;;;9.60;4.90;;;9.00;99.90;;;;;;5093429;28;20568;-86
2023/10/23 01:42:46;;;;;;;8.45;4.25;;;8.90;99.90;;;;;;5076354;28;20043;-87
2023/10/23 01:45:12;;;;;;;8.52;4.00;;;9.00;99.90;;;;;;5076010;28;20621;-86
2023/10/23 01:47:38;;;;;;;7.53;3.75;;;8.90;99.90;;;;;;5076110;28;20077;-86
2023/10/23 01:50:04;;;;;;;9.43;4.10;;;8.90;99.90;;;;;;5075819;28;20035;-86
2023/10/23 01:52:29;;;;;;;5.60;2.83;;;8.90;99.90;;;;;;5092993;28;20044;-86
2023/10/23 01:54:55;;;;;;;7.30;2.78;;;8.90;99.90;;;;;;5093290;28;20035;-86
2023/10/23 01:57:20;;;;;;;6.10;2.95;;;8.80;99.90;;;;;;5093038;28;20578;-86
2023/10/23 01:59:46;;;;;;;9.00;3.47;;;8.80;99.90;;;;;;5092391;28;20522;-86
2023/10/23 02:02:11;;;;;;;7.15;2.85;;;8.80;99.90;;;;;;5076257;28;20042;-86
2023/10/23 02:04:39;;;;;;;8.52;2.70;;;8.80;99.90;;;;;;5092604;28;20419;-86
2023/10/23 02:07:05;;;;;;;7.22;3.03;;;8.70;99.90;;;;;;5075942;28;20040;-86
2023/10/23 02:09:31;;;;;;;6.45;2.78;;;8.70;99.90;;;;;;5092557;28;20028;-86
2023/10/23 02:11:57;;;;;;;5.55;2.50;;;8.70;99.90;;;;;;5076064;28;20127;-86
2023/10/23 02:14:23;;;;;;;5.50;2.28;;;8.70;99.90;;;;;;5075544;28;20079;-86
2023/10/23 02:16:48;;;;;;;7.32;3.20;;;8.60;99.90;;;;;;5092719;28;20058;-86
2023/10/23 02:19:14;;;;;;;8.40;4.10;;;8.60;99.90;;;;;;5092146;28;20040;-86
2023/10/23 02:21:39;;;;;;;11.10;4.63;;;8.70;99.90;;;;;;5075782;28;20051;-86
2023/10/23 02:24:05;;;;;;;7.50;3.10;;;8.70;99.90;;;;;;5093336;28;20048;-86
2023/10/23 02:26:31;;;;;;;5.78;2.10;;;8.70;99.90;;;;;;5096302;28;20032;-85
2023/10/23 02:28:57;;;;;;;6.88;3.10;;;8.60;99.90;;;;;;5078801;28;20486;-86
2023/10/23 02:31:23;;;;;;;8.20;2.63;;;8.60;99.90;;;;;;5096153;28;20184;-86
2023/10/23 02:33:49;;;;;;;8.30;2.92;;;8.60;99.90;;;;;;5079530;28;20051;-86
2023/10/23 02:36:15;;;;;;;5.57;2.65;;;8.60;99.90;;;;;;5079611;28;20035;-86
2023/10/23 02:38:42;;;;;;;7.28;2.75;;;8.50;99.90;;;;;;5078671;28;20452;-86
2023/10/23 02:41:07;;;;;;;5.88;2.65;;;8.60;99.90;;;;;;5078935;28;20383;-86
2023/10/23 02:43:33;;;;;;;7.40;2.95;;;8.50;99.90;;;;;;5095679;28;20051;-86
2023/10/23 02:46:04;;;;;;;8.68;2.70;;;8.50;99.90;;;;;;5096313;28;20040;-86
2023/10/23 02:48:30;;;;;;;6.15;2.30;;;8.50;99.90;;;;;;5095551;28;20111;-86
2023/10/23 02:50:56;;;;;;;6.07;2.30;;;8.50;99.90;;;;;;5095723;28;20075;-86
2023/10/23 02:53:22;;;;;;;3.65;1.70;;;8.40;99.90;;;;;;5078709;28;20075;-86
2023/10/23 02:55:49;;;;;;;4.50;1.67;;;8.30;99.90;;;;;;5095636;28;20039;-86
2023/10/23 02:58:15;;;;;;;2.95;1.15;;;8.30;99.90;;;;;;5078813;28;20410;-86
2023/10/23 03:00:42;;;;;;;4.15;1.63;;;8.20;99.90;;;;;;5095516;28;20437;-85
2023/10/23 03:03:08;;;;;;;5.40;1.50;;;8.20;99.90;;;;;;5095731;28;20110;-86
2023/10/23 03:05:34;;;;;;;5.38;2.25;;;8.10;99.90;;;;;;5078563;28;20042;-85
2023/10/23 03:08:00;;;;;;;8.35;3.80;;;8.00;99.90;;;;;;5095303;28;20118;-85
2023/10/23 03:10:26;;;;;;;5.07;2.13;;;8.00;99.90;;;;;;5094872;28;20036;-85
2023/10/23 03:12:52;;;;;;;7.00;3.05;;;8.00;99.90;;;;;;5078366;28;20581;-85
2023/10/23 03:15:18;;;;;;;7.47;3.00;;;8.10;99.90;;;;;;5078436;28;20072;-85
2023/10/23 03:17:43;;;;;;;6.53;3.20;;;8.10;99.90;;;;;;5078371;28;20051;-85
2023/10/23 03:20:10;;;;;;;5.70;2.50;;;8.10;99.90;;;;;;5094666;28;20027;-85
2023/10/23 03:22:35;;;;;;;6.38;3.13;;;8.10;99.90;;;;;;5078168;28;20043;-85
2023/10/23 03:25:01;;;;;;;8.82;3.58;;;8.10;99.90;;;;;;5094881;28;20036;-85
2023/10/23 03:27:26;;;;;;;6.97;3.35;;;8.10;99.90;;;;;;5078192;28;20134;-86
2023/10/23 03:29:52;;;;;;;6.78;2.65;;;8.20;99.90;;;;;;5077991;28;20035;-85
2023/10/23 03:32:18;;;;;;;7.20;3.47;;;8.20;99.90;;;;;;5093318;28;20483;-86
2023/10/23 03:34:44;;;;;;;7.50;3.40;;;8.20;99.90;;;;;;5101973;28;20126;-86
2023/10/23 03:37:10;;;;;;;7.50;3.17;;;8.20;99.90;;;;;;5094257;28;20040;-86
2023/10/23 03:39:35;;;;;;;8.35;3.80;;;8.20;99.90;;;;;;5094227;28;20050;-86
2023/10/23 03:42:01;;;;;;;8.98;4.00;;;8.20;99.90;;;;;;5094648;28;20127;-86
2023/10/23 03:44:27;;;;;;;9.55;4.50;;;8.20;99.90;;;;;;5077779;28;20047;-86
2023/10/23 03:46:53;;;;;;;10.93;4.63;;;8.30;99.90;;;;;;5078649;28;20061;-86
2023/10/23 03:49:19;;;;;;;7.75;3.20;;;8.30;99.90;;;;;;5078552;28;20122;-86
2023/10/23 03:51:45;;;;;;;8.60;3.63;;;8.30;99.90;;;;;;5078253;28;20071;-86
2023/10/23 03:54:11;;;;;;;9.40;4.50;;;8.30;99.90;;;;;;5094371;28;20070;-86
2023/10/23 03:56:36;;;;;;;10.30;4.38;;;8.30;99.90;;;;;;5077984;28;20122;-86
2023/10/23 03:59:03;;;;;;;9.00;4.32;;;8.30;99.90;;;;;;5077297;28;20494;-86
2023/10/23 04:01:29;;;;;;;8.35;3.97;;;8.30;99.90;;;;;;5094273;28;20092;-86
2023/10/23 04:03:54;;;;;;;9.48;3.45;;;8.40;99.90;;;;;;5077240;28;20043;-86
2023/10/23 04:06:20;;;;;;;8.25;3.47;;;8.40;99.90;;;;;;5077404;28;20028;-85
2023/10/23 04:08:46;;;;;;;8.90;3.80;;;8.40;99.90;;;;;;5094033;28;20465;-86
2023/10/23 04:11:14;;;;;;;7.97;4.05;;;8.40;99.90;;;;;;5093972;28;20035;-86
2023/10/23 04:13:40;;;;;;;9.85;3.90;;;8.40;99.90;;;;;;5077494;28;20122;-86
2023/10/23 04:16:06;;;;;;;9.07;3.92;;;8.40;99.90;;;;;;5077733;28;20460;-86
2023/10/23 04:18:31;;;;;;;7.85;3.55;;;8.40;99.90;;;;;;5076804;28;20039;-86
2023/10/23 04:21:05;;;;;;;8.93;3.60;;;8.40;99.90;;;;;;5093650;28;20040;-86
2023/10/23 04:23:31;;;;;;;7.07;2.83;;;8.40;99.90;;;;;;5076868;28;20039;-86
2023/10/23 04:25:57;;;;;;;8.85;3.10;;;8.40;99.90;;;;;;5077368;28;20128;-86
2023/10/23 04:28:23;;;;;;;5.72;2.17;;;8.30;99.90;;;;;;5077178;28;20067;-86
2023/10/23 04:30:48;;;;;;;6.22;2.53;;;8.30;99.90;;;;;;5076677;28;20031;-86
2023/10/23 04:33:21;;;;;;;7.25;3.08;;;8.30;99.90;;;;;;5077323;28;20472;-86
2023/10/23 04:35:51;;;;;;;6.32;2.92;;;8.20;99.90;;;;;;5077275;28;20068;-86
2023/10/23 04:38:17;;;;;;;7.38;2.90;;;8.20;99.90;;;;;;5076872;28;20036;-86
2023/10/23 04:40:44;;;;;;;6.47;2.80;;;8.10;99.90;;;;;;5093266;28;20035;-86
2023/10/23 04:43:12;;;;;;;7.88;3.65;;;8.10;99.90;;;;;;5076771;28;20126;-86
2023/10/23 04:45:39;;;;;;;8.98;3.22;;;8.10;99.90;;;;;;5093764;28;20058;-86
2023/10/23 04:48:08;;;;;;;7.50;3.30;;;8.10;99.90;;;;;;5076511;28;20036;-86
2023/10/23 04:50:34;;;;;;;7.60;3.03;;;8.10;99.90;;;;;;5092906;28;20118;-86
2023/10/23 04:53:00;;;;;;;7.45;2.80;;;8.00;99.90;;;;;;5076555;28;20035;-86
2023/10/23 04:55:30;;;;;;;6.57;2.97;;;8.00;99.90;;;;;;5093377;28;20050;-86
2023/10/23 04:57:56;;;;;;;8.00;2.50;;;7.90;99.90;;;;;;5093692;28;20122;-86
2023/10/23 05:00:22;;;;;;;6.20;2.85;;;7.90;99.90;;;;;;5075881;28;20114;-86
2023/10/23 05:02:48;;;;;;;7.28;2.17;;;7.90;99.90;;;;;;5076584;28;20035;-86
2023/10/23 05:05:13;;;;;;;6.45;2.72;;;7.80;99.90;;;;;;5092963;28;20051;-86
2023/10/23 05:07:39;;;;;;;7.50;3.25;;;7.80;99.90;;;;;;5076800;28;20084;-86
2023/10/23 05:10:09;;;;;;;7.40;3.20;;;7.80;99.90;;;;;;5092972;28;20062;-86
2023/10/23 05:12:39;;;;;;;7.85;2.63;;;7.80;99.90;;;;;;5093150;28;20040;-85
2023/10/23 05:15:05;;;;;;;6.45;3.38;;;7.90;99.90;;;;;;5076356;28;20123;-86
2023/10/23 05:17:31;;;;;;;8.55;3.35;;;7.90;99.90;;;;;;5076330;28;20551;-86
2023/10/23 05:19:57;;;;;;;7.38;3.35;;;7.90;99.90;;;;;;5097760;28;20039;-85
2023/10/23 05:22:23;;;;;;;6.72;3.35;;;7.90;99.90;;;;;;5093896;28;20062;-85
2023/10/23 05:24:49;;;;;;;9.18;4.57;;;7.90;99.90;;;;;;5082802;28;20498;-85
2023/10/23 05:27:15;;;;;;;9.77;4.72;;;7.90;99.90;;;;;;5076808;28;20035;-86
2023/10/23 05:29:41;;;;;;;9.25;5.00;;;8.00;99.90;;;;;;5076582;28;20043;-86
2023/10/23 05:32:07;;;;;;;8.95;4.68;;;8.00;99.90;;;;;;5076458;28;20434;-85
2023/10/23 05:34:33;;;;;;;13.10;5.30;;;8.10;99.90;;;;;;5077211;28;20040;-86
2023/10/23 05:36:59;;;;;;;9.48;5.05;;;8.10;99.90;;;;;;5085399;28;20383;-86
2023/10/23 05:39:25;;;;;;;12.35;5.95;;;8.10;99.90;;;;;;5101474;28;20036;-85
2023/10/23 05:41:51;;;;;;;13.15;6.15;;;8.20;99.90;;;;;;5076129;28;20579;-86
2023/10/23 05:44:17;;;;;;;10.57;4.75;;;8.20;99.90;;;;;;5076034;28;20043;-86
2023/10/23 05:46:42;;;;;;;12.32;5.78;;;8.20;99.90;;;;;;5093056;28;20118;-86
2023/10/23 05:49:08;;;;;;;10.80;5.05;;;8.20;99.90;;;;;;5076285;28;20036;-86
2023/10/23 05:51:33;;;;;;;10.63;4.95;;;8.20;99.90;;;;;;5076497;28;20572;-86
2023/10/23 05:53:59;;;;;;;10.77;5.60;;;8.20;99.90;;;;;;5081072;28;20502;-86
2023/10/23 05:56:24;;;;;;;12.88;5.40;;;8.20;99.90;;;;;;5093142;28;20074;-86
2023/10/23 05:58:50;;;;;;;13.55;6.43;;;8.30;99.90;;;;;;5093739;28;20437;-87
2023/10/23 06:01:17;;;;;;;10.75;5.80;;;8.30;99.90;;;;;;5079618;28;20680;-86
2023/10/23 06:03:43;;;;;;;13.43;4.95;;;8.30;99.90;;;;;;5098451;28;20036;-86
2023/10/23 06:06:09;;;;;;;11.82;5.20;;;8.20;99.90;;;;;;5100393;28;20085;-86
2023/10/23 06:08:35;;;;;;;9.57;4.97;;;8.20;99.90;;;;;;5081240;28;20062;-86
2023/10/23 06:11:01;;;;;;;16.48;5.40;;;8.20;99.90;;;;;;5080620;28;20459;-86
2023/10/23 06:13:27;;;;;;;10.40;5.55;;;8.20;99.90;;;;;;5097064;28;20048;-86
2023/10/23 06:15:53;;;;;;;10.48;5.05;;;8.20;99.90;;;;;;5096530;28;20525;-86
2023/10/23 06:18:19;;;;;;;10.68;5.10;;;8.10;99.90;;;;;;5096752;28;20074;-86
2023/10/23 06:20:45;;;;;;;10.18;5.30;;;8.20;99.90;;;;;;5096409;28;20043;-86
2023/10/23 06:23:10;;;;;;;11.80;5.38;;;8.20;99.90;;;;;;5078887;28;20038;-86
2023/10/23 06:25:36;;;;;;;9.85;5.07;;;8.20;99.90;;;;;;5112436;27;20486;-86
2023/10/23 06:28:03;;;;;;;13.35;7.10;;;8.20;99.90;;;;;;5100945;28;20039;-86
2023/10/23 06:30:29;;;;;;;13.35;5.40;;;8.20;99.90;;;;;;5078822;28;20036;-86
2023/10/23 06:32:55;;;;;;;11.65;5.75;;;8.20;99.90;;;;;;5099353;28;20039;-86
2023/10/23 06:35:20;;;;;;;11.48;5.50;;;8.30;99.90;;;;;;5096670;28;20100;-87
2023/10/23 06:37:48;;;;;;;11.55;5.97;;;8.30;99.90;;;;;;5079649;28;20437;-87
2023/10/23 06:40:13;;;;;;;9.10;4.68;;;8.30;99.90;;;;;;5095958;28;20412;-86
2023/10/23 06:42:39;;;;;;;13.25;11.75;;;8.30;99.90;;;;;;5095711;28;20032;-86
2023/10/23 06:45:06;;;;;;;9.63;4.30;;;8.40;99.90;;;;;;5095962;28;20040;-86
2023/10/23 06:47:32;;;;;;;11.20;4.25;;;8.40;99.90;;;;;;5079267;28;20039;-87
2023/10/23 06:49:59;;;;;;;9.27;3.75;;;8.40;99.90;;;;;;5100395;28;20036;-86
2023/10/23 06:52:25;;;;;;;7.45;3.72;;;8.30;99.90;;;;;;5079146;28;20123;-86
2023/10/23 06:54:50;;;;;;;8.10;3.58;;;8.30;99.90;;;;;;5079160;28;20503;-86
2023/10/23 06:57:16;;;;;;;8.50;4.15;;;8.30;99.90;;;;;;5095588;28;20410;-86
2023/10/23 06:59:42;;;;;;;8.68;4.13;;;8.40;99.90;;;;;;5078328;28;20031;-86
2023/10/23 07:02:09;;;;;;;8.15;3.88;;;8.40;99.90;;;;;;5078515;28;20035;-86
2023/10/23 07:04:34;;;;;;;8.88;3.88;;;8.40;99.90;;;;;;5095620;28;20050;-87
2023/10/23 07:07:00;;;;;;;7.35;3.17;;;8.40;99.90;;;;;;5079376;28;20036;-87
2023/10/23 07:09:25;;;;;;;9.88;3.10;;;8.40;99.90;;;;;;5078716;28;20502;-87
2023/10/23 07:11:52;;;;;;;9.43;3.22;;;8.40;99.90;;;;;;5103600;28;20065;-87
2023/10/23 07:14:18;;;;;;;10.45;3.97;;;8.40;99.90;;;;;;5095161;28;20510;-86
2023/10/23 07:16:45;;;;;;;9.43;4.93;;;8.40;99.90;;;;;;5078620;28;20554;-87
2023/10/23 07:19:11;;;;;;;8.82;4.32;;;8.50;99.90;;;;;;5078547;28;20040;-86
2023/10/23 07:21:37;;;;;;;8.75;4.93;;;8.50;99.90;;;;;;5102897;27;20042;-86
2023/10/23 07:24:03;;;;;;;8.80;4.47;;;8.50;99.90;;;;;;5106597;27;20032;-86
2023/10/23 07:26:29;;;;;;;8.50;3.92;;;8.50;99.90;;;;;;5088130;27;20084;-86
2023/10/23 07:28:55;;;;;;;12.18;4.18;;;8.50;99.90;;;;;;5103353;28;20036;-86
2023/10/23 07:31:21;;;;;;;10.50;4.85;;;8.60;99.90;;;;;;5086553;28;20093;-86
2023/10/23 07:33:47;;;;;;;9.30;5.00;;;8.60;99.90;;;;;;5078494;28;20571;-87
2023/10/23 07:36:14;;;;;;;12.50;5.05;;;8.60;99.90;;;;;;5095463;28;20036;-87
2023/10/23 07:38:44;;;;;;;8.80;3.95;;;8.60;99.90;;;;;;5079467;28;20066;-86
2023/10/23 07:41:10;;;;;;;10.32;4.80;;;8.60;99.90;;;;;;5103389;28;20036;-86
2023/10/23 07:43:36;;;;;;;12.95;4.82;;;8.70;99.90;;;;;;5094581;28;20043;-86
2023/10/23 07:46:07;;;;;;;9.95;4.65;;;8.70;99.90;;;;;;5095023;28;20040;-86
2023/10/23 07:48:33;;;;;;;13.10;4.55;;;8.70;99.90;;;;;;5077854;28;20031;-86
2023/10/23 07:50:59;;;;;;;13.50;5.13;;;8.70;99.90;;;;;;5077997;28;20077;-87
2023/10/23 07:53:26;;;;;;;11.25;4.95;;;8.80;99.90;;;;;;5077796;28;20075;-86
2023/10/23 07:55:51;;;;;;;11.18;5.35;;;8.80;99.90;;;;;;5080721;28;20063;-86
2023/10/23 07:58:17;;;;;;;9.57;4.45;;;8.80;99.90;;;;;;5096902;28;20198;-87
2023/10/23 08:00:43;;;;;;;13.70;4.38;;;8.90;99.90;;;;;;5095940;28;20036;-87
2023/10/23 08:03:09;;;;;;;10.38;4.68;;;8.90;99.90;;;;;;5097386;28;20040;-87
2023/10/23 08:05:35;;;;;;;8.88;3.95;;;8.90;99.90;;;;;;5094751;28;20039;-86
2023/10/23 08:08:01;;;;;;;8.98;4.70;;;8.90;99.90;;;;;;5077723;28;20376;-86
2023/10/23 08:10:27;;;;;;;10.52;5.53;;;8.90;99.90;;;;;;5093733;28;20093;-87
2023/10/23 08:12:52;;;;;;;7.97;3.85;;;9.00;99.90;;;;;;5077052;28;20484;-87
2023/10/23 08:15:18;;;;;;;9.48;4.47;;;9.00;99.90;;;;;;5084435;28;20104;-87
2023/10/23 08:17:44;;;;;;;10.60;4.63;;;9.00;99.90;;;;;;5077491;28;20044;-87
2023/10/23 08:20:10;;;;;;;11.85;5.35;;;9.00;99.90;;;;;;5076745;28;20043;-87
2023/10/23 08:22:36;;;;;;;11.10;5.35;;;9.10;99.90;;;;;;5093543;28;20123;-86
2023/10/23 08:25:02;;;;;;;10.25;5.20;;;9.10;99.90;;;;;;5080913;28;20044;-86
2023/10/23 08:27:28;;;;;;;10.90;4.95;;;9.10;99.90;;;;;;5094234;28;20092;-87
2023/10/23 08:29:53;;;;;;;9.85;5.65;;;9.10;99.90;;;;;;5085901;28;20422;-87
2023/10/23 08:32:19;;;;;;;11.68;6.20;;;9.20;99.90;;;;;;5087716;28;20036;-87
2023/10/23 08:34:44;;;;;;;13.93;6.55;;;9.20;99.90;;;;;;5079296;28;20044;-86
2023/10/23 08:37:10;;;;;;;15.80;7.82;;;9.30;99.90;;;;;;5078706;28;20040;-87
2023/10/23 08:39:37;;;;;;;15.68;8.40;;;9.40;99.90;;;;;;5102472;28;20047;-87
2023/10/23 08:42:03;;;;;;;15.75;6.25;;;9.40;99.90;;;;;;5093639;28;20616;-86
2023/10/23 08:44:29;;;;;;;20.67;9.15;;;9.50;99.90;;;;;;5093622;28;20035;-87
2023/10/23 08:46:55;;;;;;;45.08;9.15;;;9.60;99.90;;;;;;5099340;28;20031;-87
2023/10/23 08:49:20;;;;;;;16.88;7.10;;;9.70;99.90;;;;;;5076953;28;20035;-86
2023/10/23 08:51:51;;;;;;;16.55;7.47;;;9.80;99.90;;;;;;5093732;28;20039;-87
2023/10/23 08:54:17;;;;;;;17.33;7.75;;;9.80;99.90;;;;;;5076767;28;20058;-87
2023/10/23 08:56:44;;;;;;;18.85;8.75;;;9.90;99.90;;;;;;5095526;28;20122;-86
2023/10/23 08:59:11;;;;;;;23.85;8.63;;;10.00;99.90;;;;;;5096248;28;20043;-88
2023/10/23 09:01:37;;;;;;;17.20;7.97;;;10.00;99.90;;;;;;5077422;28;20040;-87
2023/10/23 09:04:03;;;;;;;17.65;8.32;;;10.10;99.90;;;;;;5080797;28;20127;-87
2023/10/23 09:06:30;;;;;;;20.27;8.45;;;10.20;99.90;;;;;;5085143;28;20040;-86
2023/10/23 09:08:56;;;;;;;20.98;10.38;;;10.20;99.90;;;;;;5076104;28;20036;-87
2023/10/23 09:11:43;;;;;;;24.10;10.38;;;10.30;99.90;;;;;;5076297;28;20073;-86
2023/10/23 09:14:09;;;;;;;23.38;10.23;;;10.30;99.90;;;;;;5076878;28;20039;-87
2023/10/23 09:16:36;;;;;;;23.63;10.38;;;10.40;99.90;;;;;;5084940;28;20040;-87
2023/10/23 09:19:02;;;;;;;19.83;9.65;;;10.40;99.90;;;;;;5093194;28;20123;-86
2023/10/23 09:21:29;;;;;;;19.40;9.38;;;10.50;99.90;;;;;;5102286;28;20027;-87
2023/10/23 09:23:58;;;;;;;17.67;7.90;;;10.60;99.90;;;;;;5085135;28;20099;-87
2023/10/23 09:26:24;;;;;;;17.48;8.60;;;10.60;99.90;;;;;;5099825;28;20027;-87
2023/10/23 09:28:52;;;;;;;13.05;7.35;;;10.70;99.90;;;;;;5102489;28;20035;-87
2023/10/23 09:31:19;;;;;;;24.52;21.92;;;10.70;99.90;;;;;;5085418;28;20043;-86
2023/10/23 09:33:48;;;;;;;15.98;8.93;;;10.80;99.90;;;;;;5086715;27;20512;-87
2023/10/23 09:36:15;;;;;;;16.63;8.70;;;10.90;99.90;;;;;;5090024;27;20043;-87
2023/10/23 09:38:58;;;;;;;15.30;7.60;;;10.90;99.90;;;;;;5107921;27;20039;-87
2023/10/23 09:41:24;;;;;;;17.00;8.38;;;10.90;99.90;;;;;;5087115;27;20514;-87
2023/10/23 09:43:51;;;;;;;14.82;7.63;;;10.90;99.90;;;;;;5089653;27;20050;-87
2023/10/23 09:46:19;;;;;;;13.70;7.38;;;11.00;99.90;;;;;;5106372;27;20141;-87
2023/10/23 09:48:44;;;;;;;15.23;8.40;;;11.00;99.90;;;;;;5105996;27;20028;-87
2023/10/23 09:51:18;;;;;;;19.25;8.65;;;11.00;99.90;;;;;;5085406;28;20032;-87
2023/10/23 09:53:49;;;;;;;16.77;9.18;;;11.10;99.90;;;;;;5080428;28;20047;-87
2023/10/23 09:56:21;;;;;;;16.80;8.27;;;11.20;99.90;;;;;;5085794;27;20074;-87
2023/10/23 09:58:48;;;;;;;;;;;11.20;99.90;;;;;;5106207;27;20745;-87
2023/10/23 10:01:17;;;;;;;25.38;22.70;;;11.30;99.90;;;;;;5102861;27;19915;-88
2023/10/23 10:03:46;;;;;;;19.95;10.73;;;11.40;99.90;;;;;;5105524;27;20035;-87
2023/10/23 10:06:15;;;;;;;20.95;9.95;;;11.40;99.90;;;;;;5100935;27;20509;-87
2023/10/23 10:08:43;;;;;;;18.70;9.55;;;11.40;99.90;;;;;;5104860;27;20027;-87
2023/10/23 10:11:09;;;;;;;20.42;9.63;;;11.40;99.90;;;;;;5085834;27;20027;-87
2023/10/23 10:13:36;;;;;;;20.20;10.73;;;11.40;99.90;;;;;;5114475;28;20046;-87
2023/10/23 10:16:04;;;;;;;20.65;11.52;;;11.40;99.90;;;;;;5080144;28;20437;-87
2023/10/23 10:18:30;;;;;;;21.70;11.52;;;11.50;99.90;;;;;;5079551;28;20039;-87
2023/10/23 10:21:00;;;;;;;19.05;9.70;;;11.50;99.90;;;;;;5079298;28;20037;-87
2023/10/23 10:23:28;;;;;;;18.00;9.70;;;11.50;99.90;;;;;;5095628;28;20035;-87
2023/10/23 10:25:54;;;;;;;21.38;9.98;;;11.50;99.90;;;;;;5079399;28;20038;-87
2023/10/23 10:28:26;;;;;;;22.65;11.40;;;11.50;99.90;;;;;;5079403;28;20043;-87
2023/10/23 10:30:51;;;;;;;23.00;11.32;;;11.60;99.90;;;;;;5096588;28;20046;-87
2023/10/23 10:33:31;;;;;;;21.75;11.43;;;11.60;99.90;;;;;;5095971;28;20036;-87
2023/10/23 10:36:06;;;;;;;22.55;11.38;;;11.60;99.90;;;;;;5096615;28;20089;-87
2023/10/23 10:38:34;;;;;;;23.25;12.40;;;11.70;99.90;;;;;;5087457;28;20036;-87
2023/10/23 10:41:05;;;;;;;23.35;11.35;;;11.70;99.90;;;;;;5079477;28;20036;-87
2023/10/23 10:43:41;;;;;;;26.75;12.88;;;11.70;99.90;;;;;;5095610;28;20040;-87
2023/10/23 10:46:23;;;;;;;26.77;14.30;;;11.70;99.90;;;;;;5096205;28;20044;-87
2023/10/23 10:48:50;;;;;;;34.80;31.27;;;11.70;99.90;;;;;;5073026;28;20461;-88
2023/10/23 10:51:26;;;;;;;34.83;31.15;;;11.90;99.90;;;;;;5095662;28;20042;-87
2023/10/23 10:54:11;;;;;;;24.17;14.15;;;12.00;99.90;;;;;;5104659;28;20046;-88
2023/10/23 10:56:36;;;;;;;24.77;12.82;;;12.00;99.90;;;;;;5072788;28;20043;-87
2023/10/23 10:59:04;;;;;;;22.60;12.32;;;12.00;99.90;;;;;;5090810;28;20067;-88
2023/10/23 11:01:30;;;;;;;23.52;13.00;;;12.10;99.90;;;;;;5082600;28;20455;-87
2023/10/23 11:03:56;;;;;;;23.00;11.93;;;12.10;99.90;;;;;;5096025;28;20036;-88
2023/10/23 11:06:23;;;;;;;24.13;11.20;;;12.10;99.90;;;;;;5079309;28;20104;-88
2023/10/23 11:08:50;;;;;;;23.38;13.20;;;12.20;99.90;;;;;;5095604;28;20039;-88
2023/10/23 11:11:17;;;;;;;21.45;12.45;;;12.20;99.90;;;;;;5079207;28;20405;-88
2023/10/23 11:13:43;;;;;;;22.67;11.68;;;12.20;99.90;;;;;;5095107;28;20050;-88
2023/10/23 11:16:11;;;;;;;21.63;11.23;;;12.30;99.90;;;;;;5096186;28;20043;-87
2023/10/23 11:18:37;;;;;;;21.33;12.52;;;12.30;99.90;;;;;;5103700;28;20064;-88
2023/10/23 11:21:03;;;;;;;30.05;27.08;;;12.40;99.90;;;;;;5095679;28;20036;-88
2023/10/23 11:23:30;;;;;;;19.90;10.93;;;12.50;99.90;;;;;;5078469;28;20066;-87
2023/10/23 11:25:56;;;;;;;25.50;13.77;;;12.50;99.90;;;;;;5095791;28;20032;-88
2023/10/23 11:28:23;;;;;;;21.48;12.60;;;12.60;99.90;;;;;;5078867;28;20100;-85
2023/10/23 11:30:53;;;;;;;27.92;25.13;;;12.60;99.90;;;;;;5087585;28;20127;-87
2023/10/23 11:33:19;;;;;;;20.05;12.18;;;12.70;99.90;;;;;;5085310;28;20043;-87
2023/10/23 11:35:44;;;;;;;17.98;10.00;;;12.80;99.90;;;;;;5095619;28;20054;-86
2023/10/23 11:38:19;;;;;;;21.92;12.30;;;12.70;99.90;;;;;;5095412;28;20032;-88
2023/10/23 11:40:46;;;;;;;24.73;22.15;;;12.70;99.90;;;;;;5085063;28;20039;-87
2023/10/23 11:43:16;;;;;;;18.98;11.02;;;12.80;99.90;;;;;;5086112;28;20039;-88
2023/10/23 11:45:43;;;;;;;18.15;9.25;;;12.80;99.90;;;;;;5102699;28;20031;-88
2023/10/23 11:48:09;;;;;;;16.52;9.45;;;12.80;99.90;;;;;;5086370;28;20042;-87
2023/10/23 11:50:38;;;;;;;16.65;8.77;;;12.90;99.90;;;;;;5103660;28;20036;-88
2023/10/23 11:53:04;;;;;;;17.92;9.50;;;12.90;99.90;;;;;;5086488;28;20121;-88
2023/10/23 11:55:31;;;;;;;19.00;9.80;;;12.90;99.90;;;;;;5103423;28;20445;-88
2023/10/23 11:57:56;;;;;;;17.88;10.30;;;12.90;99.90;;;;;;5077616;28;20036;-89
2023/10/23 12:00:23;;;;;;;17.17;9.63;;;13.00;99.90;;;;;;5086431;28;20040;-88
2023/10/23 12:02:50;;;;;;;18.70;8.95;;;13.00;99.90;;;;;;5102213;27;20042;-88
2023/10/23 12:05:21;;;;;;;23.80;20.63;;;13.10;99.90;;;;;;5106849;27;20041;-88
2023/10/23 12:07:52;;;;;;;23.33;20.90;;;13.20;99.90;;;;;;5088680;27;20031;-88
2023/10/23 12:10:19;;;;;;;17.73;10.43;;;13.40;99.90;;;;;;5099305;28;20063;-86
2023/10/23 12:12:46;;;;;;;16.55;9.77;;;13.40;99.90;;;;;;5077122;27;20031;-86
2023/10/23 12:15:15;;;;;;;21.10;18.88;;;13.40;99.90;;;;;;5094984;27;20510;-86
2023/10/23 12:17:41;;;;;;;22.35;20.05;;;13.50;99.90;;;;;;5075332;27;20032;-86
2023/10/23 12:20:11;;;;;;;16.13;9.63;;;13.70;99.90;;;;;;5079608;28;20039;-88
2023/10/23 12:22:42;;;;;;;16.48;8.27;;;13.70;99.90;;;;;;5088174;27;20035;-88
2023/10/23 12:25:09;;;;;;;17.90;9.57;;;13.70;99.90;;;;;;5102218;28;20493;-87
2023/10/23 12:27:36;;;;;;;15.77;8.95;;;13.60;99.90;;;;;;5077869;28;20039;-88
2023/10/23 12:30:04;;;;;;;23.10;19.08;;;13.60;99.90;;;;;;5077587;28;20046;-87
2023/10/23 12:32:33;;;;;;;21.52;19.33;;;13.70;99.90;;;;;;5078351;28;20035;-87
2023/10/23 12:34:59;;;;;;;22.50;20.20;;;13.80;99.90;;;;;;5077232;28;20035;-87
2023/10/23 12:37:28;;;;;;;19.77;10.98;;;13.90;99.90;;;;;;5079495;28;20031;-87
2023/10/23 12:39:58;;;;;;;22.40;9.75;;;13.90;99.90;;;;;;5076926;28;20051;-88
2023/10/23 12:42:24;;;;;;;16.10;8.70;;;13.90;99.90;;;;;;5077162;28;20459;-87
2023/10/23 12:44:54;;;;;;;18.40;9.65;;;14.00;99.90;;;;;;5076692;28;20546;-87